createdAt,value
2018-09-28T00:01:15.235Z,35.00
2018-09-28T00:03:44.073Z,35.37
2018-09-28T00:06:12.914Z,33.17
2018-09-28T00:08:42.048Z,34.07
2018-09-28T00:11:11.323Z,34.30
2018-09-28T00:13:40.300Z,34.13
2018-09-28T00:16:09.722Z,31.87
2018-09-28T00:18:38.739Z,33.27
2018-09-28T00:21:07.984Z,33.03
2018-09-28T00:23:37.855Z,32.07
2018-09-28T00:26:07.762Z,31.97
2018-09-28T00:28:36.743Z,32.30
2018-09-28T00:31:05.772Z,30.03
2018-09-28T00:33:34.685Z,29.13
2018-09-28T00:36:04.534Z,28.30
2018-09-28T00:38:33.284Z,25.57
2018-09-28T00:41:02.276Z,25.23
2018-09-28T00:43:31.161Z,21.97
2018-09-28T00:46:00.011Z,20.30
2018-09-28T00:48:29.644Z,17.73
2018-09-28T00:50:58.592Z,13.77
2018-09-28T00:53:27.655Z,12.03
2018-09-28T00:55:56.689Z,11.27
2018-09-28T00:58:25.828Z,10.00
2018-09-28T01:00:55.680Z,9.40
2018-09-28T01:03:24.643Z,8.03
2018-09-28T01:05:53.397Z,8.57
2018-09-28T01:08:22.452Z,8.47
2018-09-28T01:10:52.503Z,8.50
2018-09-28T01:13:21.831Z,7.23
2018-09-28T01:15:50.928Z,7.87
2018-09-28T01:18:20.275Z,8.30
2018-09-28T01:20:48.920Z,8.07
2018-09-28T01:23:18.729Z,8.53
2018-09-28T01:25:47.552Z,7.73
2018-09-28T01:28:16.400Z,7.63
2018-09-28T01:30:45.536Z,7.53
2018-09-28T01:33:14.419Z,7.80
2018-09-28T01:35:43.544Z,7.57
2018-09-28T01:38:12.392Z,7.67
2018-09-28T01:40:41.922Z,7.03
2018-09-28T01:43:10.911Z,6.93
2018-09-28T01:45:40.109Z,5.80
2018-09-28T01:48:09.734Z,6.50
2018-09-28T01:50:39.736Z,6.20
2018-09-28T01:53:08.645Z,4.53
2018-09-28T01:55:37.401Z,5.00
2018-09-28T01:58:06.707Z,5.00
2018-09-28T02:00:35.657Z,4.07
2018-09-28T02:03:04.574Z,3.87
2018-09-28T02:05:37.264Z,4.97
2018-09-28T02:08:06.434Z,3.70
2018-09-28T02:10:35.477Z,4.80
2018-09-28T02:13:04.333Z,4.20
2018-09-28T02:15:33.538Z,4.33
2018-09-28T02:18:02.676Z,4.00
2018-09-28T02:20:32.315Z,3.70
2018-09-28T02:23:05.065Z,4.70
2018-09-28T02:25:34.272Z,4.10
2018-09-28T02:28:04.480Z,4.43
2018-09-28T02:30:33.926Z,4.17
2018-09-28T02:33:03.108Z,4.43
2018-09-28T02:35:32.535Z,4.30
2018-09-28T02:38:01.756Z,4.90
2018-09-28T02:40:37.209Z,4.23
2018-09-28T02:43:07.424Z,4.03
2018-09-28T02:45:39.802Z,4.57
2018-09-28T02:48:11.333Z,4.00
2018-09-28T02:50:41.823Z,3.83
2018-09-28T02:53:14.818Z,4.70
2018-09-28T02:55:43.498Z,4.40
2018-09-28T02:58:12.490Z,4.47
2018-09-28T03:00:41.830Z,4.70
2018-09-28T03:03:11.471Z,4.47
2018-09-28T03:05:41.153Z,5.10
2018-09-28T03:08:11.980Z,4.87
2018-09-28T03:10:41.279Z,4.03
2018-09-28T03:13:10.610Z,4.50
2018-09-28T03:15:40.561Z,3.97
2018-09-28T03:18:09.512Z,3.97
2018-09-28T03:20:40.115Z,4.33
2018-09-28T03:23:09.144Z,4.40
2018-09-28T03:25:38.852Z,3.47
2018-09-28T03:28:09.775Z,3.33
2018-09-28T03:30:39.133Z,3.37
2018-09-28T03:33:08.134Z,3.07
2018-09-28T03:35:37.110Z,3.50
2018-09-28T03:38:07.002Z,3.00
2018-09-28T03:40:35.913Z,3.83
2018-09-28T03:43:04.915Z,3.10
2018-09-28T03:45:33.496Z,2.70
2018-09-28T03:48:37.667Z,2.70
2018-09-28T03:51:31.325Z,2.70
2018-09-28T04:00:49.779Z,1.60
2018-09-28T04:03:29.593Z,2.00
2018-09-28T04:06:12.165Z,1.77
2018-09-28T04:08:42.721Z,1.97
2018-09-28T04:11:23.336Z,1.40
2018-09-28T04:14:04.634Z,1.60
2018-09-28T04:16:45.869Z,1.60
2018-09-28T04:19:25.864Z,1.67
2018-09-28T04:22:09.831Z,1.60
2018-09-28T04:24:55.577Z,2.13
2018-09-28T04:27:34.076Z,2.00
2018-09-28T04:30:04.964Z,1.23
2018-09-28T04:32:36.561Z,1.13
2018-09-28T04:35:14.033Z,1.30
2018-09-28T04:38:00.883Z,2.20
2018-09-28T04:40:43.432Z,1.67
2018-09-28T04:50:49.338Z,2.17
2018-09-28T04:53:24.075Z,2.13
2018-09-28T04:56:00.637Z,1.63
2018-09-28T04:58:49.181Z,1.97
2018-09-28T05:01:20.127Z,2.23
2018-09-28T05:04:25.970Z,2.07
2018-09-28T05:07:22.756Z,2.10
2018-09-28T05:10:06.125Z,2.37
2018-09-28T05:12:46.803Z,2.63
2018-09-28T05:18:11.631Z,2.20
2018-09-28T05:21:08.130Z,2.40
2018-09-28T05:23:40.042Z,2.30
2018-09-28T05:35:48.909Z,2.50
2018-09-28T05:45:23.658Z,2.83
2018-09-28T05:48:16.498Z,2.00
2018-09-28T06:19:40.770Z,2.60
2018-09-28T06:22:13.514Z,1.80
2018-09-28T06:24:52.478Z,2.63
2018-09-28T06:27:26.664Z,2.00
2018-09-28T06:29:55.783Z,2.40
2018-09-28T06:32:24.348Z,2.37
2018-09-28T06:35:07.723Z,2.40
2018-09-28T06:37:39.221Z,2.53
2018-09-28T06:40:08.705Z,2.50
2018-09-28T06:42:37.641Z,2.30
2018-09-28T06:45:07.210Z,2.30
2018-09-28T06:47:36.976Z,2.30
2018-09-28T06:50:05.681Z,3.03
2018-09-28T06:52:34.542Z,2.47
2018-09-28T06:55:05.131Z,2.70
2018-09-28T06:57:40.292Z,2.33
2018-09-28T07:00:09.976Z,2.37
2018-09-28T07:02:38.916Z,2.70
2018-09-28T07:05:07.634Z,2.40
2018-09-28T07:07:36.593Z,2.40
2018-09-28T07:10:05.337Z,3.67
2018-09-28T07:12:33.840Z,2.60
2018-09-28T07:15:02.425Z,2.43
2018-09-28T07:17:31.143Z,3.07
2018-09-28T07:19:59.850Z,2.23
2018-09-28T07:22:28.633Z,2.57
2018-09-28T07:24:57.433Z,2.30
2018-09-28T07:27:26.013Z,2.50
2018-09-28T07:29:54.976Z,3.13
2018-09-28T07:32:23.780Z,2.30
2018-09-28T07:34:52.286Z,2.10
2018-09-28T07:37:21.036Z,2.60
2018-09-28T07:39:49.660Z,2.67
2018-09-28T07:42:18.596Z,1.93
2018-09-28T07:44:47.471Z,2.53
2018-09-28T07:47:24.773Z,2.03
2018-09-28T07:49:56.904Z,1.97
2018-09-28T07:52:25.843Z,2.13
2018-09-28T07:54:54.400Z,2.13
2018-09-28T07:57:22.847Z,2.57
2018-09-28T07:59:51.421Z,2.30
2018-09-28T08:02:20.146Z,2.03
2018-09-28T08:04:48.949Z,2.00
2018-09-28T08:07:17.567Z,2.00
2018-09-28T08:09:46.134Z,1.80
2018-09-28T08:12:14.694Z,2.13
2018-09-28T08:14:43.426Z,2.53
2018-09-28T08:17:12.937Z,2.10
2018-09-28T08:19:41.627Z,2.10
2018-09-28T08:22:11.501Z,2.10
2018-09-28T08:24:40.306Z,2.33
2018-09-28T08:27:09.635Z,2.57
2018-09-28T08:29:38.656Z,2.10
2018-09-28T08:32:07.820Z,2.70
2018-09-28T08:34:36.658Z,2.13
2018-09-28T08:37:05.398Z,2.33
2018-09-28T08:39:34.165Z,2.10
2018-09-28T08:42:03.305Z,1.97
2018-09-28T08:44:32.365Z,2.00
2018-09-28T08:47:01.457Z,2.13
2018-09-28T08:49:35.163Z,2.20
2018-09-28T08:52:03.918Z,1.80
2018-09-28T08:54:32.395Z,2.30
2018-09-28T08:57:01.664Z,2.43
2018-09-28T08:59:30.316Z,2.07
2018-09-28T09:01:59.133Z,2.40
2018-09-28T09:04:27.651Z,2.70
2018-09-28T09:06:58.294Z,1.80
2018-09-28T09:09:26.875Z,1.47
2018-09-28T09:11:55.242Z,2.10
2018-09-28T09:14:23.739Z,2.17
2018-09-28T09:16:52.124Z,1.90
2018-09-28T09:19:21.002Z,1.80
2018-09-28T09:21:49.560Z,2.10
2018-09-28T09:24:18.819Z,1.90
2018-09-28T09:26:47.275Z,2.13
2018-09-28T09:29:15.873Z,1.53
2018-09-28T09:31:44.565Z,1.80
2018-09-28T09:34:13.223Z,1.80
2018-09-28T09:36:41.955Z,1.80
2018-09-28T09:39:12.250Z,1.80
2018-09-28T09:41:41.447Z,1.60
2018-09-28T09:44:09.982Z,2.10
2018-09-28T09:46:38.955Z,1.60
2018-09-28T09:49:07.668Z,1.57
2018-09-28T09:51:36.129Z,2.03
2018-09-28T09:54:05.090Z,1.70
2018-09-28T09:56:33.588Z,1.70
2018-09-28T09:59:02.045Z,1.80
2018-09-28T10:01:35.951Z,1.67
2018-09-28T10:04:10.479Z,1.77
2018-09-28T10:06:38.964Z,1.70
2018-09-28T10:09:10.003Z,1.30
2018-09-28T10:11:38.643Z,1.90
2018-09-28T10:14:07.135Z,1.50
2018-09-28T10:16:35.673Z,1.57
2018-09-28T10:19:04.371Z,1.20
2018-09-28T10:21:32.833Z,1.70
2018-09-28T10:24:02.562Z,2.30
2018-09-28T10:26:31.426Z,1.47
2018-09-28T10:29:00.085Z,1.80
2018-09-28T10:31:28.987Z,1.50
2018-09-28T10:33:57.792Z,1.90
2018-09-28T10:36:26.538Z,1.93
2018-09-28T10:38:55.098Z,1.53
2018-09-28T10:41:23.513Z,1.53
2018-09-28T10:43:52.398Z,1.47
2018-09-28T10:46:21.823Z,1.63
2018-09-28T10:48:50.225Z,1.93
2018-09-28T10:51:19.221Z,1.80
2018-09-28T10:53:54.415Z,2.03
2018-09-28T10:56:23.044Z,1.50
2018-09-28T10:58:51.734Z,1.67
2018-09-28T11:01:21.083Z,1.63
2018-09-28T11:03:50.699Z,1.50
2018-09-28T11:06:20.004Z,1.60
2018-09-28T11:08:48.764Z,1.77
2018-09-28T11:11:17.282Z,1.40
2018-09-28T11:13:56.373Z,1.50
2018-09-28T11:16:37.020Z,1.60
2018-09-28T11:19:05.665Z,1.73
2018-09-28T11:21:34.166Z,2.50
2018-09-28T11:24:20.547Z,1.87
2018-09-28T11:26:49.358Z,1.80
2018-09-28T11:29:17.990Z,2.07
2018-09-28T11:31:46.632Z,1.87
2018-09-28T11:34:15.240Z,2.00
2018-09-28T11:36:43.919Z,2.37
2018-09-28T11:39:12.634Z,1.60
2018-09-28T11:41:41.135Z,1.83
2018-09-28T11:44:10.083Z,1.53
2018-09-28T11:46:38.582Z,1.53
2018-09-28T11:49:08.190Z,1.17
2018-09-28T11:51:36.985Z,1.50
2018-09-28T11:54:06.382Z,1.10
2018-09-28T11:56:36.099Z,2.47
2018-09-28T11:59:04.822Z,1.00
2018-09-28T12:01:34.884Z,1.40
2018-09-28T12:04:03.553Z,1.47
2018-09-28T12:06:36.026Z,1.20
2018-09-28T12:09:07.217Z,1.20
2018-09-28T12:11:35.896Z,1.60
2018-09-28T12:14:05.587Z,1.33
2018-09-28T12:16:35.209Z,1.73
2018-09-28T12:19:04.033Z,1.60
2018-09-28T12:21:32.888Z,1.43
2018-09-28T12:24:03.016Z,1.73
2018-09-28T12:26:32.364Z,1.47
2018-09-28T12:29:01.317Z,1.20
2018-09-28T12:31:29.888Z,1.33
2018-09-28T12:33:59.364Z,1.27
2018-09-28T12:36:28.120Z,1.10
2018-09-28T12:38:56.792Z,0.90
2018-09-28T12:41:25.740Z,1.40
2018-09-28T12:43:54.498Z,1.43
2018-09-28T12:46:23.245Z,1.10
2018-09-28T12:48:51.906Z,1.87
2018-09-28T12:51:20.611Z,1.10
2018-09-28T12:53:49.422Z,1.10
2018-09-28T12:56:21.978Z,1.13
2018-09-28T12:58:50.731Z,1.30
2018-09-28T13:01:20.043Z,1.33
2018-09-28T13:03:48.812Z,1.57
2018-09-28T13:06:17.402Z,1.30
2018-09-28T13:08:46.332Z,1.60
2018-09-28T13:11:15.085Z,1.80
2018-09-28T13:13:43.982Z,1.87
2018-09-28T13:16:12.841Z,1.97
2018-09-28T13:18:42.129Z,1.57
2018-09-28T13:21:10.992Z,1.67
2018-09-28T13:23:39.580Z,1.63
2018-09-28T13:26:08.207Z,1.43
2018-09-28T13:28:40.652Z,1.43
2018-09-28T13:31:09.446Z,1.50
2018-09-28T13:33:38.073Z,1.23
2018-09-28T13:36:06.793Z,1.30
2018-09-28T13:38:36.664Z,1.43
2018-09-28T13:41:05.183Z,1.30
2018-09-28T13:43:33.780Z,1.63
2018-09-28T13:46:02.481Z,1.30
2018-09-28T13:48:31.190Z,2.33
2018-09-28T13:51:01.158Z,1.30
2018-09-28T14:05:11.190Z,2.20
2018-09-28T14:08:09.661Z,1.70
2018-09-28T14:30:29.445Z,1.13
2018-09-28T14:33:03.852Z,1.63
2018-09-28T14:35:32.442Z,1.70
2018-09-28T14:38:01.389Z,1.30
2018-09-28T14:40:29.934Z,1.67
2018-09-28T14:42:58.739Z,1.40
2018-09-28T14:45:27.326Z,1.60
2018-09-28T14:47:56.016Z,1.20
2018-09-28T14:50:24.795Z,1.80
2018-09-28T14:52:53.743Z,1.60
2018-09-28T14:55:22.606Z,1.67
2018-09-28T14:57:51.061Z,1.33
2018-09-28T15:00:21.897Z,1.73
2018-09-28T15:02:50.365Z,1.50
2018-09-28T15:05:20.164Z,1.30
2018-09-28T15:08:07.066Z,1.57
2018-09-28T15:13:43.748Z,1.87
2018-09-28T15:16:25.034Z,1.37
2018-09-28T15:18:56.483Z,1.40
2018-09-28T15:21:49.930Z,1.73
2018-09-28T15:24:18.680Z,1.30
2018-09-28T15:26:48.037Z,1.87
2018-09-28T15:29:16.770Z,1.33
2018-09-28T15:31:49.773Z,1.50
2018-09-28T15:34:21.108Z,1.30
2018-09-28T15:39:35.751Z,1.37
2018-09-28T15:44:51.888Z,1.60
2018-09-28T15:47:25.239Z,1.73
2018-09-28T15:49:54.599Z,1.30
2018-09-28T15:52:23.304Z,2.03
2018-09-28T15:54:52.162Z,1.57
2018-09-28T15:57:20.971Z,1.23
2018-09-28T15:59:56.798Z,1.43
2018-09-28T16:02:25.349Z,1.37
2018-09-28T16:04:54.887Z,1.10
2018-09-28T16:10:17.150Z,1.73
2018-09-28T16:12:46.165Z,1.67
2018-09-28T16:15:33.883Z,1.50
2018-09-28T16:18:04.329Z,1.50
2018-09-28T16:20:34.417Z,2.13
2018-09-28T16:23:04.227Z,1.17
2018-09-28T16:25:33.220Z,1.67
2018-09-28T16:28:02.280Z,1.50
2018-09-28T16:30:31.783Z,2.17
2018-09-28T16:33:00.267Z,1.90
2018-09-28T16:35:29.313Z,2.13
2018-09-28T16:37:58.850Z,1.60
2018-09-28T16:40:31.072Z,1.60
2018-09-28T16:43:01.440Z,1.60
2018-09-28T16:45:33.153Z,1.50
2018-09-28T16:48:05.345Z,2.20
2018-09-28T16:50:56.660Z,1.43
2018-09-28T16:53:36.044Z,1.53
2018-09-28T16:56:10.085Z,1.70
2018-09-28T17:01:33.843Z,1.67
2018-09-28T17:04:27.104Z,1.17
2018-09-28T17:07:02.220Z,1.20
2018-09-28T17:09:34.187Z,1.13
2018-09-28T17:12:09.267Z,1.67
2018-09-28T17:14:39.834Z,1.80
2018-09-28T17:17:12.876Z,1.93
2018-09-28T17:19:47.432Z,1.93
2018-09-28T17:22:17.932Z,1.67
2018-09-28T17:24:50.390Z,1.50
2018-09-28T17:27:20.431Z,1.40
2018-09-28T17:29:51.415Z,1.70
2018-09-28T17:32:29.851Z,1.83
2018-09-28T17:35:01.496Z,2.77
2018-09-28T17:37:43.011Z,3.43
2018-09-28T17:40:14.123Z,4.33
2018-09-28T17:52:27.633Z,1.50
2018-09-28T17:55:22.655Z,1.73
2018-09-28T17:58:17.772Z,1.50
2018-09-28T18:01:14.916Z,1.43
2018-09-28T18:03:43.724Z,1.60
2018-09-28T18:23:58.494Z,3.30
2018-09-28T19:29:02.434Z,2.53
2018-09-28T19:32:35.038Z,2.37
2018-09-28T19:50:59.967Z,2.47
2018-09-28T20:37:29.351Z,3.10
2018-09-28T20:42:51.993Z,3.07
2018-09-28T20:45:37.439Z,3.30
2018-09-28T20:48:08.619Z,3.20
2018-09-28T20:50:39.929Z,2.80
2018-09-28T20:53:10.234Z,2.87
2018-09-28T20:55:40.021Z,3.00
2018-09-28T20:58:17.271Z,2.77
2018-09-28T21:00:47.937Z,2.57
2018-09-28T21:03:22.383Z,3.37
2018-09-28T21:06:06.672Z,3.03
2018-09-28T21:08:41.016Z,2.43
2018-09-28T21:11:10.972Z,2.30
2018-09-28T21:13:41.540Z,3.00
2018-09-28T21:16:12.536Z,2.43
2018-09-28T21:18:43.896Z,2.30
2018-09-28T21:55:32.297Z,2.90
2018-09-28T21:58:01.651Z,2.90
2018-09-28T22:00:31.445Z,2.23
2018-09-28T22:03:20.178Z,2.77
2018-09-28T22:05:50.553Z,2.73
2018-09-28T22:08:23.478Z,2.67
2018-09-28T22:10:53.619Z,3.30
2018-09-28T22:13:26.099Z,3.63
2018-09-28T22:15:58.711Z,4.53
2018-09-28T22:18:30.456Z,4.80
2018-09-28T22:23:49.568Z,3.90
2018-09-28T22:26:19.562Z,4.13
2018-09-28T22:28:51.331Z,3.73
2018-09-28T22:31:21.472Z,3.60
2018-09-28T22:33:51.467Z,3.60
2018-09-28T22:36:20.368Z,3.23
2018-09-28T22:38:51.209Z,4.23
2018-09-28T22:46:01.470Z,3.50
2018-09-28T22:48:30.922Z,3.70
2018-09-28T22:51:01.130Z,4.13
2018-09-28T22:53:32.249Z,4.10
2018-09-28T22:56:13.315Z,3.97
2018-09-28T22:59:01.935Z,3.83
2018-09-28T23:01:31.867Z,3.53
2018-09-28T23:04:01.651Z,3.53
2018-09-28T23:06:32.009Z,3.20
2018-09-28T23:09:01.836Z,2.77
2018-09-28T23:11:31.173Z,2.40
2018-09-28T23:14:00.247Z,3.10
2018-09-28T23:16:29.114Z,2.90
2018-09-28T23:18:58.138Z,3.03
2018-09-28T23:21:28.946Z,2.87
2018-09-28T23:23:59.965Z,2.90
2018-09-28T23:26:29.341Z,3.17
2018-09-28T23:28:58.433Z,3.47
2018-09-28T23:31:27.257Z,3.03
2018-09-28T23:33:56.253Z,2.80
2018-09-28T23:36:25.071Z,3.30
2018-09-28T23:38:54.000Z,2.83
2018-09-28T23:41:22.758Z,2.87
2018-09-28T23:43:54.552Z,2.50
2018-09-28T23:46:23.358Z,2.60
2018-09-28T23:48:53.559Z,3.43
2018-09-28T23:51:22.367Z,2.67
2018-09-28T23:53:51.043Z,2.60
2018-09-28T23:56:19.772Z,2.70
2018-09-28T23:58:48.506Z,3.07
